Time;durP1;ratioP1;P1;durP2;ratioP2;P2;SDS_P1;SDS_P2;PMS_P1;PMS_P2;Temp;Humidity;BMP_temperature;BMP_pressure;BME280_temperature;BME280_humidity;BME280_pressure;Samples;Min_cycle;Max_cycle;Signal;HPM_P1;HPM_P2
2023/06/13 00:00:16;;;;;;;49.28;22.75;;;16.40;99.90;;;;;;5096698;28;20373;-66
2023/06/13 00:02:44;;;;;;;44.83;22.77;;;16.30;99.90;;;;;;5096587;28;20382;-66
2023/06/13 00:05:17;;;;;;;37.00;20.95;;;16.20;99.90;;;;;;5097023;28;20099;-66
2023/06/13 00:07:44;;;;;;;42.88;21.48;;;16.30;99.90;;;;;;5096627;28;20036;-66
2023/06/13 00:10:10;;;;;;;41.80;21.50;;;16.30;99.90;;;;;;5096680;28;20120;-66
2023/06/13 00:12:38;;;;;;;30.40;20.42;;;16.40;99.90;;;;;;5096488;28;20027;-67
2023/06/13 00:15:06;;;;;;;39.78;21.65;;;16.30;99.90;;;;;;5096594;28;20032;-66
2023/06/13 00:17:32;;;;;;;37.55;21.75;;;16.20;99.90;;;;;;5096597;28;20085;-67
2023/06/13 00:20:04;;;;;;;37.33;22.83;;;16.20;99.90;;;;;;5096444;28;20028;-66
2023/06/13 00:22:30;;;;;;;47.65;22.80;;;16.10;99.90;;;;;;5096287;28;20032;-66
2023/06/13 00:24:56;;;;;;;41.00;21.33;;;16.10;99.90;;;;;;5096553;28;20035;-66
2023/06/13 00:27:22;;;;;;;56.45;24.83;;;16.10;99.90;;;;;;5096585;28;20111;-66
2023/06/13 00:29:48;;;;;;;40.30;22.55;;;16.10;99.90;;;;;;5095003;28;20032;-66
2023/06/13 00:32:15;;;;;;;42.28;22.10;;;16.10;99.90;;;;;;5096067;28;20039;-66
2023/06/13 00:34:41;;;;;;;43.58;23.00;;;16.10;99.90;;;;;;5095000;28;20024;-66
2023/06/13 00:37:12;;;;;;;46.80;22.27;;;16.10;99.90;;;;;;5096037;28;20097;-66
2023/06/13 00:39:41;;;;;;;43.70;23.10;;;16.10;99.90;;;;;;5096259;28;20028;-66
2023/06/13 00:42:07;;;;;;;43.60;23.67;;;16.10;99.90;;;;;;5096138;28;20028;-66
2023/06/13 00:44:34;;;;;;;38.38;24.25;;;16.10;99.90;;;;;;5096087;28;20474;-66
2023/06/13 00:47:02;;;;;;;37.67;24.38;;;16.10;99.90;;;;;;5094615;28;20032;-66
2023/06/13 00:49:28;;;;;;;38.35;24.63;;;16.00;99.90;;;;;;5095833;28;20036;-66
2023/06/13 00:52:00;;;;;;;42.50;25.88;;;16.00;99.90;;;;;;5095833;28;20119;-66
2023/06/13 00:54:26;;;;;;;39.67;24.98;;;15.90;99.90;;;;;;5095758;28;20377;-67
2023/06/13 00:56:52;;;;;;;38.08;24.95;;;15.90;99.90;;;;;;5094536;28;20028;-66
2023/06/13 00:59:19;;;;;;;43.55;24.80;;;16.00;99.90;;;;;;5095598;28;20024;-66
2023/06/13 01:01:47;;;;;;;45.25;25.35;;;15.90;99.90;;;;;;5094400;28;20427;-67
2023/06/13 01:04:15;;;;;;;43.58;25.30;;;15.90;99.90;;;;;;5095665;28;20055;-66
2023/06/13 01:06:44;;;;;;;43.85;26.20;;;15.90;99.90;;;;;;5094424;28;20074;-66
2023/06/13 01:09:12;;;;;;;44.70;26.17;;;16.00;99.90;;;;;;5094023;28;20024;-67
2023/06/13 01:12:19;;;;;;;55.00;26.98;;;15.90;99.90;;;;;;5095037;28;20103;-66
2023/06/13 01:14:58;;;;;;;47.38;26.33;;;16.00;99.90;;;;;;5051652;28;20050;-67
2023/06/13 01:17:30;;;;;;;42.42;24.83;;;16.00;99.90;;;;;;5095400;28;20024;-66
2023/06/13 01:20:00;;;;;;;48.85;26.30;;;16.00;99.90;;;;;;5095290;28;20358;-66
2023/06/13 01:22:54;;;;;;;56.03;26.40;;;16.00;99.90;;;;;;5095322;28;20028;-66
2023/06/13 01:25:57;;;;;;;51.20;24.75;;;16.00;99.90;;;;;;5095264;28;20032;-66
2023/06/13 01:28:24;;;;;;;48.33;26.33;;;16.00;99.90;;;;;;5095289;28;20027;-66
2023/06/13 01:30:53;;;;;;;41.22;24.02;;;16.00;99.90;;;;;;5095149;28;20025;-66
2023/06/13 01:33:21;;;;;;;41.97;24.00;;;16.00;99.90;;;;;;5093740;28;20089;-66
2023/06/13 01:35:48;;;;;;;46.63;24.52;;;16.00;99.90;;;;;;5094008;28;20043;-66
2023/06/13 01:38:14;;;;;;;41.72;23.98;;;15.90;99.90;;;;;;5094849;28;20044;-66
2023/06/13 01:40:42;;;;;;;42.95;22.55;;;15.90;99.90;;;;;;5093739;28;20086;-66
2023/06/13 01:43:08;;;;;;;39.47;23.80;;;15.90;99.90;;;;;;5094984;28;20052;-66
2023/06/13 01:45:34;;;;;;;39.40;25.23;;;16.00;99.90;;;;;;5095229;28;20036;-67
2023/06/13 01:48:14;;;;;;;52.92;25.88;;;16.00;99.90;;;;;;5094961;28;20024;-66
2023/06/13 01:50:46;;;;;;;27.75;17.30;;;16.00;99.90;;;;;;5094805;28;20032;-66
2023/06/13 01:53:25;;;;;;;23.75;16.08;;;16.00;99.90;;;;;;5093537;28;20028;-67
2023/06/13 01:56:03;;;;;;;34.83;15.50;;;16.00;99.90;;;;;;5093599;28;20027;-66
2023/06/13 01:58:36;;;;;;;30.13;18.17;;;16.00;99.90;;;;;;5093422;28;20024;-66
2023/06/13 02:01:04;;;;;;;40.58;21.50;;;15.90;99.90;;;;;;5093292;28;20036;-66
2023/06/13 02:03:31;;;;;;;38.78;21.48;;;15.90;99.90;;;;;;5094792;28;20594;-66
2023/06/13 02:05:58;;;;;;;38.00;20.85;;;15.90;99.90;;;;;;5094647;28;20525;-67
2023/06/13 02:08:24;;;;;;;29.20;13.07;;;15.90;99.90;;;;;;5094627;28;20478;-67
2023/06/13 02:10:49;;;;;;;16.00;9.52;;;15.90;99.90;;;;;;5093254;28;20070;-67
2023/06/13 02:13:15;;;;;;;13.95;7.97;;;15.80;99.90;;;;;;5093308;28;20558;-66
2023/06/13 02:15:41;;;;;;;22.67;8.32;;;15.60;99.90;;;;;;5093170;28;20059;-66
2023/06/13 02:18:09;;;;;;;19.88;6.28;;;15.50;99.90;;;;;;5093312;28;20381;-67
2023/06/13 02:20:35;;;;;;;14.13;5.68;;;15.50;99.90;;;;;;5094520;28;20020;-67
2023/06/13 02:23:04;;;;;;;12.68;5.18;;;15.40;99.90;;;;;;5096592;28;20024;-66
2023/06/13 02:25:31;;;;;;;19.92;7.15;;;15.30;99.90;;;;;;5097608;28;20051;-66
2023/06/13 02:27:57;;;;;;;18.08;8.20;;;15.20;99.90;;;;;;5098626;28;20355;-67
2023/06/13 02:30:24;;;;;;;17.90;7.82;;;15.30;99.90;;;;;;5098635;28;20031;-66
2023/06/13 02:32:52;;;;;;;15.18;5.85;;;15.30;99.90;;;;;;5098745;28;19912;-66
2023/06/13 02:35:23;;;;;;;15.50;5.43;;;15.40;99.90;;;;;;5097175;28;20036;-66
2023/06/13 02:37:56;;;;;;;17.02;5.47;;;15.30;99.90;;;;;;5098292;28;20491;-66
2023/06/13 02:40:23;;;;;;;16.98;6.43;;;15.40;99.90;;;;;;5097257;28;20411;-66
2023/06/13 02:42:50;;;;;;;19.13;4.85;;;15.30;99.90;;;;;;5098426;28;20024;-66
2023/06/13 02:45:16;;;;;;;19.70;4.57;;;15.30;99.90;;;;;;5098318;28;20031;-66
2023/06/13 02:47:43;;;;;;;8.95;4.00;;;15.30;99.90;;;;;;5096859;28;20027;-66
2023/06/13 02:50:09;;;;;;;7.55;3.20;;;15.30;99.90;;;;;;5098233;28;20034;-66
2023/06/13 02:52:35;;;;;;;8.55;3.05;;;15.20;99.90;;;;;;5098201;28;20057;-66
2023/06/13 02:55:02;;;;;;;9.60;3.28;;;15.10;99.90;;;;;;5096915;28;20032;-66
2023/06/13 02:57:28;;;;;;;6.72;3.15;;;15.00;99.90;;;;;;5096770;28;20028;-66
2023/06/13 02:59:54;;;;;;;12.48;3.45;;;15.10;99.90;;;;;;5098379;28;20462;-66
2023/06/13 03:02:20;;;;;;;9.82;3.58;;;15.10;99.90;;;;;;5096723;28;20040;-66
2023/06/13 03:04:48;;;;;;;15.00;3.65;;;15.10;99.90;;;;;;5096784;28;20028;-66
2023/06/13 03:07:20;;;;;;;11.73;3.55;;;15.10;99.90;;;;;;5096645;28;20036;-66
2023/06/13 03:09:46;;;;;;;10.93;3.53;;;15.10;99.90;;;;;;5096182;28;20028;-66
2023/06/13 03:12:13;;;;;;;9.95;3.03;;;15.10;99.90;;;;;;5096373;28;20028;-66
2023/06/13 03:14:45;;;;;;;9.77;3.10;;;15.10;99.90;;;;;;5096455;28;20032;-66
2023/06/13 03:17:16;;;;;;;13.55;2.90;;;15.10;99.90;;;;;;5096469;28;20032;-66
2023/06/13 03:19:44;;;;;;;15.00;3.50;;;15.00;99.90;;;;;;5096318;28;20036;-66
2023/06/13 03:22:14;;;;;;;7.97;3.35;;;15.00;99.90;;;;;;5096586;28;20028;-66
2023/06/13 03:24:42;;;;;;;14.27;3.83;;;15.00;99.90;;;;;;5096411;28;20119;-66
2023/06/13 03:27:09;;;;;;;9.65;3.40;;;15.00;99.90;;;;;;5096334;28;20036;-66
2023/06/13 03:29:36;;;;;;;11.45;3.75;;;15.00;99.90;;;;;;5096323;28;20485;-66
2023/06/13 03:32:02;;;;;;;14.85;3.58;;;15.00;99.90;;;;;;5096152;28;20036;-66
2023/06/13 03:34:29;;;;;;;11.70;3.88;;;15.00;99.90;;;;;;5095670;28;20371;-66
2023/06/13 03:36:55;;;;;;;24.27;5.45;;;15.10;99.90;;;;;;5095877;28;20079;-67
2023/06/13 03:39:23;;;;;;;18.52;4.85;;;15.10;99.90;;;;;;5096130;28;20362;-66
2023/06/13 03:41:49;;;;;;;17.40;5.53;;;15.10;99.90;;;;;;5095890;28;20040;-66
2023/06/13 03:44:15;;;;;;;18.52;5.90;;;15.10;99.90;;;;;;5095932;28;20126;-67
2023/06/13 03:46:41;;;;;;;19.55;6.93;;;15.10;99.90;;;;;;5096218;28;20158;-66
2023/06/13 03:49:07;;;;;;;17.77;5.07;;;15.10;99.90;;;;;;5097199;28;20027;-67
2023/06/13 03:51:33;;;;;;;19.33;5.35;;;15.20;99.90;;;;;;5095841;28;20224;-66
2023/06/13 03:53:59;;;;;;;18.52;5.10;;;15.20;99.90;;;;;;5095730;28;20032;-67
2023/06/13 03:56:26;;;;;;;9.60;3.58;;;15.30;99.90;;;;;;5095599;28;20125;-66
2023/06/13 03:58:53;;;;;;;8.95;3.60;;;15.20;99.90;;;;;;5095710;28;20048;-66
2023/06/13 04:01:19;;;;;;;10.85;4.10;;;15.20;99.90;;;;;;5095714;28;20035;-66
2023/06/13 04:03:46;;;;;;;14.13;3.92;;;15.20;99.90;;;;;;5095398;28;20036;-67
2023/06/13 04:06:12;;;;;;;12.77;4.35;;;15.20;99.90;;;;;;5097081;28;20028;-66
2023/06/13 04:08:38;;;;;;;16.65;4.70;;;15.30;99.90;;;;;;5096761;28;20035;-67
2023/06/13 04:11:05;;;;;;;9.15;3.75;;;15.30;99.90;;;;;;5095104;28;20025;-66
2023/06/13 04:13:32;;;;;;;13.35;4.28;;;15.40;99.90;;;;;;5096629;28;20470;-66
2023/06/13 04:16:00;;;;;;;15.05;4.57;;;15.40;99.90;;;;;;5095274;28;20125;-66
2023/06/13 04:18:27;;;;;;;5.78;3.70;;;15.40;99.90;;;;;;5095296;28;20050;-66
2023/06/13 04:20:53;;;;;;;9.65;3.50;;;15.40;99.90;;;;;;5096628;28;20028;-66
2023/06/13 04:23:21;;;;;;;9.10;3.58;;;15.40;99.90;;;;;;5095000;28;20028;-66
2023/06/13 04:25:48;;;;;;;8.63;3.55;;;15.60;99.90;;;;;;5096324;28;20032;-66
2023/06/13 04:28:16;;;;;;;9.52;3.58;;;15.60;99.90;;;;;;5095014;28;20504;-66
2023/06/13 04:30:46;;;;;;;10.32;3.80;;;15.60;99.90;;;;;;5096233;28;20024;-66
2023/06/13 04:33:17;;;;;;;6.80;3.72;;;15.60;99.90;;;;;;5096219;28;20035;-66
2023/06/13 04:35:48;;;;;;;12.15;4.70;;;15.60;99.90;;;;;;5096421;28;20078;-66
2023/06/13 04:38:14;;;;;;;;;;;15.70;99.90;;;;;;5096259;28;20090;-66
2023/06/13 04:40:40;;;;;;;13.85;4.65;;;15.80;99.90;;;;;;5096105;28;19914;-66
2023/06/13 04:43:09;;;;;;;16.85;3.97;;;15.90;99.90;;;;;;5096192;28;20050;-66
2023/06/13 04:45:36;;;;;;;16.48;5.93;;;15.80;99.90;;;;;;5095007;28;20157;-66
2023/06/13 04:48:05;;;;;;;20.60;5.78;;;15.80;99.90;;;;;;5095963;28;20549;-66
2023/06/13 04:50:31;;;;;;;16.15;7.60;;;15.70;99.90;;;;;;5095810;28;20050;-66
2023/06/13 04:52:58;;;;;;;17.98;6.15;;;15.90;99.90;;;;;;5095756;28;20024;-67
2023/06/13 04:55:32;;;;;;;17.55;5.97;;;15.90;99.90;;;;;;5095912;28;20024;-66
2023/06/13 04:57:59;;;;;;;16.00;5.28;;;15.90;99.90;;;;;;5095686;28;20039;-66
2023/06/13 05:00:25;;;;;;;11.95;4.45;;;16.10;99.90;;;;;;5096034;28;20489;-66
2023/06/13 05:02:55;;;;;;;16.45;5.32;;;16.10;99.90;;;;;;5095794;28;20419;-66
2023/06/13 05:05:22;;;;;;;14.43;5.47;;;16.20;99.90;;;;;;5095638;28;20058;-67
2023/06/13 05:07:59;;;;;;;12.60;4.93;;;16.30;99.90;;;;;;5095619;28;20032;-66
2023/06/13 05:10:26;;;;;;;10.82;4.55;;;16.40;99.90;;;;;;5095504;28;20028;-66
2023/06/13 05:12:53;;;;;;;15.65;5.40;;;16.60;99.90;;;;;;5095573;28;20039;-67
2023/06/13 05:15:21;;;;;;;14.73;5.18;;;16.70;99.90;;;;;;5095162;28;20027;-66
2023/06/13 05:17:48;;;;;;;9.70;4.40;;;16.80;99.90;;;;;;5095361;28;20024;-66
2023/06/13 05:20:22;;;;;;;8.02;3.80;;;16.80;99.90;;;;;;5095306;28;20024;-66
2023/06/13 05:22:50;;;;;;;15.50;4.93;;;16.80;99.90;;;;;;5092838;28;20133;-66
2023/06/13 05:25:17;;;;;;;15.57;4.80;;;16.90;99.90;;;;;;5092608;28;20032;-66
2023/06/13 05:27:43;;;;;;;7.50;4.07;;;17.00;99.90;;;;;;5094998;28;20085;-66
2023/06/13 05:30:09;;;;;;;15.38;4.82;;;17.00;99.90;;;;;;5095684;28;20032;-66
2023/06/13 05:32:35;;;;;;;15.18;5.20;;;17.00;99.90;;;;;;5095596;28;20376;-66
2023/06/13 05:35:01;;;;;;;13.45;4.43;;;17.10;99.90;;;;;;5078464;28;20119;-66
2023/06/13 05:37:28;;;;;;;9.15;3.70;;;17.20;99.90;;;;;;5074703;28;20044;-67
2023/06/13 05:39:55;;;;;;;11.13;3.17;;;17.00;99.90;;;;;;5075409;28;20027;-66
2023/06/13 05:42:22;;;;;;;12.30;4.22;;;16.90;99.90;;;;;;5092585;28;20351;-66
2023/06/13 05:44:49;;;;;;;13.60;4.90;;;17.00;99.90;;;;;;5080572;28;20035;-66
2023/06/13 05:47:15;;;;;;;18.70;4.10;;;17.10;99.90;;;;;;5071671;28;20039;-66
2023/06/13 05:49:44;;;;;;;9.50;3.90;;;17.20;99.90;;;;;;5086624;28;20040;-66
2023/06/13 05:52:10;;;;;;;19.00;5.40;;;17.30;99.90;;;;;;5093585;28;20020;-66
2023/06/13 05:54:46;;;;;;;8.18;3.38;;;17.40;99.90;;;;;;5094430;28;20477;-66
2023/06/13 05:57:13;;;;;;;18.98;5.15;;;17.60;99.90;;;;;;5094166;28;20027;-67
2023/06/13 05:59:39;;;;;;;17.60;3.58;;;17.60;99.90;;;;;;5094424;28;20036;-66
2023/06/13 06:02:06;;;;;;;14.13;3.85;;;17.70;99.90;;;;;;5093670;28;20066;-66
2023/06/13 06:04:32;;;;;;;11.93;3.78;;;17.80;99.90;;;;;;5094011;28;20039;-66
2023/06/13 06:06:58;;;;;;;21.40;5.30;;;17.70;99.90;;;;;;5094055;28;20110;-66
2023/06/13 06:09:28;;;;;;;17.88;7.18;;;17.80;99.90;;;;;;5093685;28;20140;-66
2023/06/13 06:11:54;;;;;;;12.20;4.03;;;17.80;99.90;;;;;;5094083;28;20070;-66
2023/06/13 06:14:23;;;;;;;14.98;4.07;;;18.00;99.90;;;;;;5093710;28;20016;-66
2023/06/13 06:16:51;;;;;;;19.33;4.03;;;18.10;99.90;;;;;;5083685;28;20402;-66
2023/06/13 06:19:17;;;;;;;19.02;5.93;;;18.20;99.90;;;;;;5093552;28;20024;-66
2023/06/13 06:21:43;;;;;;;13.38;4.90;;;18.20;99.90;;;;;;5094874;28;20036;-66
2023/06/13 06:24:09;;;;;;;15.25;3.65;;;18.40;99.90;;;;;;5094162;28;20493;-66
2023/06/13 06:26:35;;;;;;;14.95;4.32;;;18.50;99.90;;;;;;5089141;28;20024;-66
2023/06/13 06:29:02;;;;;;;6.75;3.17;;;18.60;99.90;;;;;;5094857;28;20024;-66
2023/06/13 06:31:28;;;;;;;11.48;3.65;;;18.70;99.90;;;;;;5093382;28;20020;-66
2023/06/13 06:33:54;;;;;;;19.75;5.13;;;18.50;99.90;;;;;;5091926;28;20429;-66
2023/06/13 06:36:24;;;;;;;12.43;3.40;;;18.60;99.90;;;;;;5072531;28;20446;-66
2023/06/13 06:38:51;;;;;;;15.40;4.47;;;18.60;99.90;;;;;;5073236;28;20034;-66
2023/06/13 06:41:17;;;;;;;8.43;3.65;;;18.80;99.90;;;;;;5084525;28;20032;-65
2023/06/13 06:43:43;;;;;;;11.27;3.75;;;18.90;99.90;;;;;;5094152;28;20050;-66
2023/06/13 06:46:10;;;;;;;12.20;3.50;;;19.00;99.90;;;;;;5093683;28;20024;-65
2023/06/13 06:48:36;;;;;;;17.33;4.68;;;19.30;99.90;;;;;;5093557;28;20027;-66
2023/06/13 06:51:04;;;;;;;9.32;4.07;;;19.30;99.90;;;;;;5094017;28;20028;-66
2023/06/13 06:53:30;;;;;;;9.85;3.47;;;19.50;99.90;;;;;;5093629;28;20035;-67
2023/06/13 06:55:56;;;;;;;6.43;3.30;;;19.30;99.90;;;;;;5093323;28;20020;-66
2023/06/13 06:58:22;;;;;;;21.35;4.82;;;19.30;99.90;;;;;;5089343;28;20032;-66
2023/06/13 07:00:48;;;;;;;11.23;4.35;;;19.20;99.90;;;;;;5093121;28;20028;-66
2023/06/13 07:03:14;;;;;;;10.20;3.70;;;19.30;99.90;;;;;;5093194;28;20728;-66
2023/06/13 07:05:41;;;;;;;16.73;3.83;;;19.50;99.90;;;;;;5093444;28;20027;-66
2023/06/13 07:08:07;;;;;;;14.40;4.38;;;19.70;99.90;;;;;;5094227;28;20420;-66
2023/06/13 07:10:33;;;;;;;17.88;4.85;;;19.80;99.90;;;;;;5096770;28;20028;-66
2023/06/13 07:13:02;;;;;;;19.52;4.00;;;19.80;99.90;;;;;;5097314;28;20036;-66
2023/06/13 07:15:28;;;;;;;11.98;3.53;;;19.90;99.90;;;;;;5097744;28;20468;-65
2023/06/13 07:17:54;;;;;;;24.98;4.32;;;19.80;99.90;;;;;;5098237;28;20035;-66
2023/06/13 07:20:20;;;;;;;45.05;8.70;;;20.20;99.90;;;;;;5098412;28;20024;-66
2023/06/13 07:22:46;;;;;;;6.13;3.03;;;20.70;99.90;;;;;;5097819;28;20624;-65
2023/06/13 07:25:12;;;;;;;20.13;3.92;;;21.00;99.90;;;;;;5098098;28;20024;-66
2023/06/13 07:27:38;;;;;;;9.32;3.40;;;20.70;99.90;;;;;;5098243;28;20061;-66
2023/06/13 07:30:05;;;;;;;8.10;3.10;;;20.50;99.90;;;;;;5097711;28;20032;-66
2023/06/13 07:32:31;;;;;;;11.48;3.75;;;20.30;99.90;;;;;;5097077;28;20448;-66
2023/06/13 07:34:57;;;;;;;16.90;4.57;;;20.70;99.90;;;;;;5097618;28;20036;-65
2023/06/13 07:37:24;;;;;;;12.20;3.58;;;21.00;99.90;;;;;;5095573;28;20048;-65
2023/06/13 07:39:50;;;;;;;12.50;3.70;;;21.10;99.90;;;;;;5097852;28;20027;-65
2023/06/13 07:42:18;;;;;;;12.27;3.88;;;21.20;99.90;;;;;;5097672;28;20028;-65
2023/06/13 07:44:44;;;;;;;13.68;4.10;;;21.40;99.90;;;;;;5097984;28;20121;-65
2023/06/13 07:47:10;;;;;;;23.65;5.32;;;21.60;99.90;;;;;;5097823;28;20032;-65
2023/06/13 07:49:39;;;;;;;13.68;5.15;;;21.40;99.90;;;;;;5097632;28;20484;-65
2023/06/13 07:52:07;;;;;;;13.98;4.53;;;21.10;99.30;;;;;;5097579;28;20064;-66
2023/06/13 07:54:33;;;;;;;14.82;5.10;;;21.10;99.90;;;;;;5097755;28;20028;-65
2023/06/13 07:56:59;;;;;;;15.95;4.47;;;21.20;99.90;;;;;;5097645;28;20028;-65
2023/06/13 07:59:25;;;;;;;8.45;3.38;;;20.90;99.70;;;;;;5097704;28;20032;-65
2023/06/13 08:01:54;;;;;;;14.40;4.63;;;21.10;99.70;;;;;;5097409;28;20028;-65
2023/06/13 08:04:20;;;;;;;12.90;4.10;;;21.20;99.90;;;;;;5097247;28;20031;-65
2023/06/13 08:06:46;;;;;;;8.10;3.38;;;21.50;98.70;;;;;;5097429;28;20032;-65
2023/06/13 08:09:16;;;;;;;10.07;3.35;;;21.80;98.60;;;;;;5097357;28;20080;-65
2023/06/13 08:11:43;;;;;;;5.22;2.83;;;21.30;99.80;;;;;;5097343;28;20084;-65
2023/06/13 08:14:13;;;;;;;10.07;3.78;;;21.80;99.90;;;;;;5096473;28;20035;-65
2023/06/13 08:16:40;;;;;;;9.50;3.42;;;21.80;99.90;;;;;;5095869;28;20035;-65
2023/06/13 08:19:06;;;;;;;12.50;4.25;;;22.30;98.60;;;;;;5096955;28;20028;-65
2023/06/13 08:21:33;;;;;;;9.50;3.70;;;22.60;97.60;;;;;;5096302;28;20028;-66
2023/06/13 08:24:02;;;;;;;7.22;2.88;;;23.20;99.50;;;;;;5097155;28;20032;-65
2023/06/13 08:26:32;;;;;;;8.68;2.60;;;23.80;99.90;;;;;;5096886;28;20543;-65
2023/06/13 08:29:03;;;;;;;5.82;2.92;;;22.90;93.30;;;;;;5095710;28;20036;-66
2023/06/13 08:31:31;;;;;;;15.55;3.20;;;23.00;93.90;;;;;;5096556;28;20058;-65
2023/06/13 08:33:59;;;;;;;11.32;3.20;;;23.60;92.10;;;;;;5096429;28;20028;-65
2023/06/13 08:36:29;;;;;;;9.68;3.42;;;24.00;93.90;;;;;;5096928;28;20035;-65
2023/06/13 08:38:57;;;;;;;7.72;3.33;;;24.40;92.60;;;;;;5096454;28;20507;-65
2023/06/13 08:41:25;;;;;;;6.13;4.03;;;24.50;89.00;;;;;;5096431;28;20040;-66
2023/06/13 08:43:53;;;;;;;9.18;3.05;;;24.50;90.80;;;;;;5094494;28;20032;-65
2023/06/13 08:46:19;;;;;;;6.72;3.30;;;24.20;91.20;;;;;;5094611;28;20024;-65
2023/06/13 08:48:45;;;;;;;8.50;3.20;;;25.00;91.80;;;;;;5094561;28;20393;-65
2023/06/13 08:51:16;;;;;;;8.15;3.13;;;25.40;91.50;;;;;;5094990;28;20032;-65
2023/06/13 08:53:51;;;;;;;8.57;3.60;;;25.90;90.00;;;;;;5095037;28;20771;-65
2023/06/13 08:56:33;;;;;;;12.57;3.97;;;25.70;85.60;;;;;;5095014;28;20047;-65
2023/06/13 08:59:08;;;;;;;12.25;4.05;;;26.20;84.60;;;;;;5095658;28;20027;-65
2023/06/13 09:01:37;;;;;;;10.07;2.40;;;26.10;84.70;;;;;;5094874;28;20117;-65
2023/06/13 09:04:06;;;;;;;11.43;3.83;;;24.50;79.70;;;;;;5093735;28;20165;-65
2023/06/13 09:06:33;;;;;;;13.23;4.47;;;23.70;86.10;;;;;;5092530;28;20035;-65
2023/06/13 09:09:00;;;;;;;10.57;3.67;;;24.50;88.90;;;;;;5094023;28;20038;-64
2023/06/13 09:11:28;;;;;;;5.57;2.80;;;25.40;86.90;;;;;;5091013;28;20024;-64
2023/06/13 09:13:58;;;;;;;4.57;2.50;;;26.30;91.80;;;;;;5094205;28;20028;-64
2023/06/13 09:16:27;;;;;;;8.55;2.75;;;26.80;82.40;;;;;;5090576;28;20027;-64
2023/06/13 09:18:53;;;;;;;11.07;3.47;;;27.10;80.00;;;;;;5095655;28;20477;-64
2023/06/13 09:21:20;;;;;;;6.82;2.40;;;26.60;79.00;;;;;;5095289;28;20035;-63
2023/06/13 09:23:48;;;;;;;6.05;2.88;;;25.70;81.90;;;;;;5095123;28;20111;-64
2023/06/13 09:26:18;;;;;;;8.95;2.67;;;26.40;83.10;;;;;;5095725;28;20020;-64
2023/06/13 09:28:47;;;;;;;5.65;2.25;;;27.20;80.60;;;;;;5095481;28;20039;-64
2023/06/13 09:31:13;;;;;;;11.93;2.70;;;27.30;81.10;;;;;;5094858;28;20074;-64
2023/06/13 09:33:40;;;;;;;7.50;2.80;;;27.70;76.20;;;;;;5094993;28;20088;-64
2023/06/13 09:36:07;;;;;;;4.28;2.00;;;28.00;79.30;;;;;;5094172;28;20024;-64
2023/06/13 09:38:41;;;;;;;7.63;2.58;;;28.40;73.10;;;;;;5085192;28;20044;-65
2023/06/13 09:41:10;;;;;;;5.70;2.70;;;28.40;75.10;;;;;;5074478;28;20496;-64
2023/06/13 09:43:38;;;;;;;14.93;4.03;;;27.50;75.10;;;;;;5090383;28;20039;-64
2023/06/13 09:46:04;;;;;;;10.38;4.72;;;26.60;73.70;;;;;;5091722;28;20032;-64
2023/06/13 09:48:30;;;;;;;5.65;2.20;;;26.50;77.10;;;;;;5077008;28;20492;-64
2023/06/13 09:50:56;;;;;;;9.43;3.13;;;27.00;73.20;;;;;;5093913;28;20458;-64
2023/06/13 09:53:22;;;;;;;6.63;2.60;;;26.20;74.00;;;;;;5093515;28;20052;-64
2023/06/13 09:55:49;;;;;;;12.70;3.65;;;26.90;67.70;;;;;;5091792;28;20058;-64
2023/06/13 09:58:15;;;;;;;4.97;2.65;;;26.10;74.20;;;;;;5094128;28;20234;-64
2023/06/13 10:00:41;;;;;;;7.72;3.22;;;26.00;78.70;;;;;;5093779;28;20060;-63
2023/06/13 10:03:08;;;;;;;8.35;2.63;;;26.00;76.70;;;;;;5091002;28;20051;-64
2023/06/13 10:05:34;;;;;;;29.02;5.75;;;25.90;74.40;;;;;;5093970;28;20028;-64
2023/06/13 10:08:04;;;;;;;8.45;2.50;;;25.50;74.00;;;;;;5094871;28;20670;-64
2023/06/13 10:10:31;;;;;;;8.13;1.90;;;25.70;71.50;;;;;;5093597;28;20027;-64
2023/06/13 10:13:06;;;;;;;3.35;2.33;;;26.60;73.50;;;;;;5094946;28;20051;-64
2023/06/13 10:16:00;;;;;;;2.30;2.10;;;27.60;70.70;;;;;;5093985;28;20036;-64
2023/06/13 10:18:31;;;;;;;10.77;2.88;;;28.20;70.10;;;;;;5093983;28;20049;-64
2023/06/13 10:20:59;;;;;;;5.90;2.10;;;27.20;73.70;;;;;;5094184;28;20303;-65
2023/06/13 10:23:30;;;;;;;4.72;2.10;;;26.70;66.80;;;;;;5094117;28;20024;-65
2023/06/13 10:25:59;;;;;;;6.43;2.70;;;26.90;67.40;;;;;;5094050;28;20104;-65
2023/06/13 10:28:39;;;;;;;7.47;4.05;;;26.70;72.00;;;;;;5093209;28;20747;-64
2023/06/13 10:31:35;;;;;;;9.18;3.03;;;26.70;70.50;;;;;;5092196;28;20042;-65
2023/06/13 10:34:15;;;;;;;10.98;2.58;;;26.30;68.70;;;;;;5079216;28;20390;-65
2023/06/13 10:36:57;;;;;;;8.80;2.22;;;26.30;74.20;;;;;;5073403;28;20032;-65
2023/06/13 10:39:36;;;;;;;8.57;2.28;;;26.10;71.80;;;;;;5073910;28;20088;-65
2023/06/13 10:42:40;;;;;;;3.67;1.90;;;25.50;81.90;;;;;;5080958;28;20070;-65
2023/06/13 10:45:21;;;;;;;2.92;2.30;;;25.10;84.50;;;;;;5087760;28;20040;-65
2023/06/13 10:47:48;;;;;;;7.05;2.47;;;24.80;82.40;;;;;;5097635;28;20083;-65
2023/06/13 10:50:17;;;;;;;15.90;4.07;;;24.60;83.50;;;;;;5097177;28;20035;-65
2023/06/13 10:52:45;;;;;;;12.27;3.80;;;24.90;87.50;;;;;;5097851;28;20104;-65
2023/06/13 10:55:32;;;;;;;8.18;2.85;;;24.60;88.40;;;;;;5096411;28;20032;-65
2023/06/13 10:58:01;;;;;;;12.88;3.60;;;24.50;91.10;;;;;;5091171;28;20024;-65
2023/06/13 11:00:34;;;;;;;17.85;3.08;;;23.20;90.90;;;;;;5095294;28;20079;-65
2023/06/13 11:03:05;;;;;;;8.25;2.92;;;23.00;90.00;;;;;;5097002;28;20102;-65
2023/06/13 11:05:37;;;;;;;11.15;3.60;;;22.90;88.10;;;;;;5097380;28;20024;-65
2023/06/13 11:08:15;;;;;;;6.38;3.05;;;22.90;89.30;;;;;;5097528;28;20067;-65
2023/06/13 11:10:46;;;;;;;6.05;2.40;;;22.50;84.40;;;;;;5096846;28;20071;-65
2023/06/13 11:13:31;;;;;;;6.03;2.60;;;22.90;85.60;;;;;;5096990;28;20382;-65
2023/06/13 11:16:20;;;;;;;15.65;4.63;;;23.30;84.30;;;;;;5094009;28;20579;-65
2023/06/13 11:18:50;;;;;;;19.58;5.15;;;22.90;84.50;;;;;;5095346;28;20027;-65
2023/06/13 11:21:16;;;;;;;5.18;2.88;;;23.40;89.80;;;;;;5096769;28;20056;-65
2023/06/13 11:23:54;;;;;;;10.75;3.58;;;23.20;79.50;;;;;;5094349;28;20106;-65
2023/06/13 11:26:21;;;;;;;7.93;3.47;;;22.90;88.80;;;;;;5097176;28;20042;-66
2023/06/13 11:28:51;;;;;;;17.83;5.07;;;23.40;82.80;;;;;;5094257;28;20130;-65
2023/06/13 11:31:17;;;;;;;;;;;23.60;84.80;;;;;;5095576;28;20385;-65
2023/06/13 11:33:47;;;;;;;11.82;2.90;;;23.20;84.30;;;;;;5091373;28;19953;-65
2023/06/13 11:36:16;;;;;;;9.25;2.83;;;23.20;89.10;;;;;;5089609;28;20617;-65
2023/06/13 11:38:58;;;;;;;15.95;3.15;;;23.90;90.40;;;;;;5088148;28;20433;-65
2023/06/13 11:41:24;;;;;;;9.82;3.15;;;23.40;84.40;;;;;;5093505;28;20120;-65
2023/06/13 11:43:50;;;;;;;11.27;3.97;;;23.40;90.00;;;;;;5094548;28;20059;-66
2023/06/13 11:46:16;;;;;;;6.25;3.00;;;23.50;82.20;;;;;;5093177;28;20286;-65
2023/06/13 11:48:43;;;;;;;6.45;3.13;;;23.60;79.20;;;;;;5095505;28;20090;-65
2023/06/13 11:51:14;;;;;;;2.75;1.90;;;24.00;86.80;;;;;;5095179;28;20492;-65
2023/06/13 11:53:52;;;;;;;4.95;2.63;;;23.90;83.10;;;;;;5094845;28;20023;-65
2023/06/13 11:56:20;;;;;;;8.85;2.85;;;23.70;87.30;;;;;;5096334;28;20502;-65
2023/06/13 11:58:50;;;;;;;7.63;3.53;;;23.90;85.00;;;;;;5096046;28;20083;-65
2023/06/13 12:01:17;;;;;;;8.15;3.30;;;23.50;81.30;;;;;;5095932;28;20112;-65
2023/06/13 12:03:50;;;;;;;13.35;2.72;;;23.80;80.00;;;;;;5096108;28;20103;-66
2023/06/13 12:06:17;;;;;;;8.15;3.42;;;22.90;77.80;;;;;;5095494;28;20362;-65
2023/06/13 12:08:49;;;;;;;8.07;3.83;;;22.90;87.40;;;;;;5096066;28;20039;-65
2023/06/13 12:11:18;;;;;;;4.43;2.63;;;22.90;86.40;;;;;;5088527;28;20037;-66
2023/06/13 12:13:56;;;;;;;4.13;2.38;;;22.60;82.60;;;;;;5085352;28;20041;-66
2023/06/13 12:16:26;;;;;;;5.85;2.65;;;22.40;79.30;;;;;;5095795;28;20028;-65
2023/06/13 12:18:53;;;;;;;11.35;3.05;;;22.30;77.70;;;;;;5095989;28;20039;-66
2023/06/13 12:21:27;;;;;;;6.22;2.20;;;21.90;87.00;;;;;;5092361;28;20031;-66
2023/06/13 12:23:53;;;;;;;4.03;2.80;;;22.30;89.60;;;;;;5095411;28;20028;-65
2023/06/13 12:26:19;;;;;;;25.13;6.15;;;22.40;84.70;;;;;;5095506;28;20024;-65
2023/06/13 12:28:47;;;;;;;12.10;3.55;;;22.20;87.50;;;;;;5089625;28;20032;-65
2023/06/13 12:31:15;;;;;;;10.88;3.10;;;22.10;89.90;;;;;;5092526;28;20037;-65
2023/06/13 12:33:41;;;;;;;14.43;4.25;;;22.40;87.20;;;;;;5095491;28;20484;-66
2023/06/13 12:36:09;;;;;;;12.45;3.92;;;22.90;88.30;;;;;;5094749;28;20480;-65
2023/06/13 12:38:35;;;;;;;9.32;3.05;;;23.60;91.70;;;;;;5095452;28;20076;-65
2023/06/13 12:41:13;;;;;;;31.30;6.53;;;23.80;85.60;;;;;;5095667;28;20085;-65
2023/06/13 12:43:43;;;;;;;22.95;6.80;;;23.60;82.20;;;;;;5095477;28;20024;-65
2023/06/13 12:46:10;;;;;;;9.20;2.65;;;24.00;81.40;;;;;;5096123;28;20385;-65